Time;durP1;ratioP1;P1;durP2;ratioP2;P2;SDS_P1;SDS_P2;PMS_P1;PMS_P2;Temp;Humidity;BMP_temperature;BMP_pressure;BME280_temperature;BME280_humidity;BME280_pressure;Samples;Min_cycle;Max_cycle;Signal;HPM_P1;HPM_P2
2022/07/09 00:01:03;;;;;;;2.58;1.92;;;;;;;20.04;58.61;99365.08;1743245;82;21229;-45
2022/07/09 00:03:30;;;;;;;3.33;2.10;;;;;;;20.08;57.88;99367.16;1743300;82;21550;-44
2022/07/09 00:05:57;;;;;;;4.60;2.20;;;;;;;20.08;57.52;99367.94;1743201;82;21014;-44
2022/07/09 00:08:24;;;;;;;3.05;2.15;;;;;;;20.09;57.43;99364.59;1743262;82;20993;-44
2022/07/09 00:10:51;;;;;;;4.72;2.37;;;;;;;20.07;57.21;99369.13;1743204;82;21128;-44
2022/07/09 00:13:18;;;;;;;13.18;3.15;;;;;;;20.08;57.50;99372.06;1747989;82;21127;-44
2022/07/09 00:15:46;;;;;;;3.00;2.10;;;;;;;20.10;57.68;99368.87;1749030;82;21001;-44
2022/07/09 00:18:13;;;;;;;2.60;1.98;;;;;;;20.09;57.26;99371.47;1749129;82;21523;-44
2022/07/09 00:20:40;;;;;;;3.90;2.20;;;;;;;20.10;56.82;99367.50;1749110;82;21010;-44
2022/07/09 00:23:07;;;;;;;2.70;1.82;;;;;;;20.11;56.88;99373.97;1749133;82;21080;-44
2022/07/09 00:25:35;;;;;;;9.05;2.02;;;;;;;20.10;57.01;99368.28;1749082;82;21229;-44
2022/07/09 00:28:02;;;;;;;4.42;2.02;;;;;;;20.10;57.13;99377.13;1749083;82;20985;-44
2022/07/09 00:30:29;;;;;;;3.45;1.80;;;;;;;20.10;57.32;99377.13;1748872;82;21580;-44
2022/07/09 00:32:56;;;;;;;3.02;1.60;;;;;;;20.07;57.76;99381.52;1749117;82;21010;-44
2022/07/09 00:35:24;;;;;;;2.58;1.80;;;;;;;20.02;57.97;99379.25;1748895;82;21518;-44
2022/07/09 00:37:51;;;;;;;2.65;2.00;;;;;;;20.00;58.09;99380.86;1748900;82;23145;-44
2022/07/09 00:40:18;;;;;;;3.67;2.17;;;;;;;19.97;58.26;99381.12;1748871;82;21482;-44
2022/07/09 00:42:45;;;;;;;4.17;1.85;;;;;;;19.98;58.34;99384.65;1749015;82;20917;-44
2022/07/09 00:45:12;;;;;;;3.35;2.15;;;;;;;19.96;58.37;99376.21;1748988;82;20989;-44
2022/07/09 00:47:41;;;;;;;3.70;2.10;;;;;;;19.95;58.32;99379.38;1748979;82;21017;-44
2022/07/09 00:50:09;;;;;;;2.83;1.95;;;;;;;19.93;58.14;99379.04;1749038;82;21247;-44
2022/07/09 00:52:36;;;;;;;3.05;2.00;;;;;;;19.92;58.39;99382.98;1749162;82;20973;-44
2022/07/09 00:55:05;;;;;;;3.22;2.00;;;;;;;19.91;58.32;99380.05;1749005;82;21032;-44
2022/07/09 00:57:32;;;;;;;3.95;2.00;;;;;;;19.92;58.19;99374.73;1749200;82;21092;-44
2022/07/09 00:59:59;;;;;;;1.98;1.77;;;;;;;19.95;58.41;99376.63;1710866;83;21001;-44
2022/07/09 01:02:26;;;;;;;2.65;1.90;;;;;;;19.92;58.47;99377.48;1710699;83;23102;-44
2022/07/09 01:04:53;;;;;;;3.10;1.85;;;;;;;19.84;58.59;99379.59;1710805;83;21778;-44
2022/07/09 01:07:20;;;;;;;4.42;2.00;;;;;;;19.71;59.11;99380.01;1710807;83;21100;-44
2022/07/09 01:09:48;;;;;;;2.08;1.85;;;;;;;19.60;60.01;99384.16;1710771;83;20980;-44
2022/07/09 01:12:16;;;;;;;3.35;1.80;;;;;;;19.51;60.50;99385.46;1705024;83;21033;-45
2022/07/09 01:14:43;;;;;;;2.58;1.70;;;;;;;19.46;60.85;99384.56;1733064;82;21305;-44
2022/07/09 01:17:10;;;;;;;5.90;2.58;;;;;;;19.47;60.96;99382.59;1743272;82;21571;-44
2022/07/09 01:19:38;;;;;;;3.47;2.20;;;;;;;19.51;61.12;99386.05;1743413;82;20970;-44
2022/07/09 01:22:05;;;;;;;4.83;2.08;;;;;;;19.55;61.15;99380.52;1743548;82;21508;-44
2022/07/09 01:24:32;;;;;;;3.60;2.00;;;;;;;19.58;61.26;99379.67;1743448;81;21038;-44
2022/07/09 01:27:00;;;;;;;3.87;2.27;;;;;;;19.62;61.22;99372.12;1743581;82;21240;-44
2022/07/09 01:29:27;;;;;;;3.40;2.22;;;;;;;19.65;61.06;99380.94;1743370;81;20966;-44
2022/07/09 01:31:54;;;;;;;3.77;2.27;;;;;;;19.65;61.09;99383.69;1743416;82;20966;-44
2022/07/09 01:34:21;;;;;;;3.05;2.00;;;;;;;19.66;61.12;99386.59;1743385;81;21028;-44
2022/07/09 01:36:49;;;;;;;4.78;2.20;;;;;;;19.59;61.26;99383.98;1738301;82;20929;-44
2022/07/09 01:39:16;;;;;;;3.02;1.98;;;;;;;19.51;61.31;99388.21;1743464;82;21125;-44
2022/07/09 01:41:43;;;;;;;4.22;2.20;;;;;;;19.43;61.38;99389.50;1743382;82;20953;-44
2022/07/09 01:44:11;;;;;;;5.42;2.37;;;;;;;19.35;61.60;99388.08;1743452;81;20939;-44
2022/07/09 01:46:38;;;;;;;2.67;2.08;;;;;;;19.29;61.79;99382.86;1743368;82;20970;-44
2022/07/09 01:49:05;;;;;;;2.95;2.05;;;;;;;19.26;62.01;99374.09;1743429;82;21010;-44
2022/07/09 01:51:35;;;;;;;5.42;2.52;;;;;;;19.26;62.06;99374.69;1743405;82;21787;-44
2022/07/09 01:54:03;;;;;;;3.22;2.37;;;;;;;19.26;62.26;99369.97;1743295;81;20938;-44
2022/07/09 01:56:30;;;;;;;5.10;2.83;;;;;;;19.30;62.27;99372.05;1743584;82;20978;-44
2022/07/09 01:58:57;;;;;;;4.05;2.83;;;;;;;19.36;62.05;99368.23;1743431;82;21070;-44
2022/07/09 02:01:24;;;;;;;4.80;3.02;;;;;;;19.41;62.01;99368.52;1743375;81;21026;-44
2022/07/09 02:03:52;;;;;;;3.72;2.67;;;;;;;19.45;61.98;99365.16;1743491;81;21528;-44
2022/07/09 02:06:19;;;;;;;7.58;2.87;;;;;;;19.48;62.05;99367.06;1743410;81;21849;-44
2022/07/09 02:08:46;;;;;;;5.17;3.27;;;;;;;19.49;61.98;99360.97;1743504;81;20979;-44
2022/07/09 02:11:15;;;;;;;6.92;2.60;;;;;;;19.51;61.71;99364.05;1743289;81;21308;-44
2022/07/09 02:13:42;;;;;;;3.08;2.60;;;;;;;19.53;61.52;99367.95;1753012;81;21464;-44
2022/07/09 02:16:09;;;;;;;6.55;2.72;;;;;;;19.57;61.42;99367.11;1756579;81;23172;-44
2022/07/09 02:18:37;;;;;;;4.22;2.60;;;;;;;19.60;61.17;99363.53;1756601;81;21534;-44
2022/07/09 02:21:05;;;;;;;3.08;2.30;;;;;;;19.62;61.05;99359.75;1756721;81;20961;-44
2022/07/09 02:23:32;;;;;;;6.13;2.43;;;;;;;19.66;61.03;99364.59;1757303;81;20969;-44
2022/07/09 02:26:00;;;;;;;4.25;2.67;;;;;;;19.67;60.82;99356.52;1756815;81;21033;-44
2022/07/09 02:28:27;;;;;;;4.87;2.70;;;;;;;19.68;60.84;99358.08;1756758;81;21354;-44
2022/07/09 02:30:54;;;;;;;5.78;3.30;;;;;;;19.69;60.87;99350.79;1756799;81;20974;-44
2022/07/09 02:33:21;;;;;;;4.10;2.85;;;;;;;19.68;60.93;99351.20;1756764;81;20954;-44
2022/07/09 02:35:48;;;;;;;4.75;2.77;;;;;;;19.65;61.08;99344.58;1756898;81;21045;-44
2022/07/09 02:38:15;;;;;;;3.75;2.83;;;;;;;19.63;61.23;99356.59;1757099;81;21566;-44
2022/07/09 02:40:43;;;;;;;6.87;2.70;;;;;;;19.64;61.35;99349.12;1756982;81;21221;-44
2022/07/09 02:43:10;;;;;;;4.37;2.50;;;;;;;19.66;61.42;99350.83;1756817;81;20977;-44
2022/07/09 02:45:38;;;;;;;4.87;2.83;;;;;;;19.69;61.25;99352.77;1756883;81;20988;-44
2022/07/09 02:48:06;;;;;;;3.20;2.62;;;;;;;19.69;61.12;99351.39;1756920;81;20981;-44
2022/07/09 02:50:33;;;;;;;4.83;2.58;;;;;;;19.68;60.91;99364.36;1756948;81;21001;-44
2022/07/09 02:53:00;;;;;;;2.50;2.30;;;;;;;19.72;60.96;99376.66;1756995;81;22121;-44
2022/07/09 02:55:27;;;;;;;3.08;2.10;;;;;;;19.76;60.79;99382.88;1756874;81;20965;-44
2022/07/09 02:57:54;;;;;;;5.03;2.40;;;;;;;19.80;60.21;99394.62;1756801;81;21041;-44
2022/07/09 03:00:22;;;;;;;3.02;2.35;;;;;;;19.85;60.27;99403.73;1756900;81;21087;-44
2022/07/09 03:02:49;;;;;;;4.17;2.17;;;;;;;19.87;60.65;99420.61;1756782;81;21021;-44
2022/07/09 03:05:17;;;;;;;3.50;2.40;;;;;;;19.88;60.72;99432.58;1756989;81;21251;-44
2022/07/09 03:07:45;;;;;;;2.37;2.10;;;;;;;19.88;60.86;99439.45;1756886;81;20956;-44
2022/07/09 03:10:12;;;;;;;3.83;2.17;;;;;;;19.90;60.85;99446.68;1756960;81;21467;-44
2022/07/09 03:12:40;;;;;;;3.52;2.22;;;;;;;19.92;60.56;99446.27;1755881;81;20997;-44
2022/07/09 03:15:09;;;;;;;3.27;1.90;;;;;;;19.93;60.16;99446.45;1754748;81;21017;-43
2022/07/09 03:17:36;;;;;;;3.77;2.30;;;;;;;19.92;59.67;99443.52;1756992;81;21103;-43
2022/07/09 03:20:05;;;;;;;3.25;2.42;;;;;;;19.82;60.48;99446.63;1756903;81;20957;-43
2022/07/09 03:22:32;;;;;;;4.08;2.75;;;;;;;19.69;61.68;99439.41;1756920;81;21494;-43
2022/07/09 03:24:59;;;;;;;3.67;2.60;;;;;;;19.53;62.57;99446.92;1756942;81;21081;-43
2022/07/09 03:27:26;;;;;;;2.92;2.60;;;;;;;19.40;62.96;99449.46;1756971;81;21013;-43
2022/07/09 03:29:55;;;;;;;4.15;2.75;;;;;;;19.39;62.99;99452.02;1756846;81;20942;-43
2022/07/09 03:32:22;;;;;;;3.30;2.45;;;;;;;19.44;63.21;99457.08;1756077;81;21546;-44
2022/07/09 03:34:49;;;;;;;2.55;2.12;;;;;;;19.54;62.82;99463.61;1756854;81;21013;-44
2022/07/09 03:37:17;;;;;;;11.50;2.58;;;;;;;19.63;63.21;99457.58;1756050;81;21594;-44
2022/07/09 03:39:44;;;;;;;3.45;2.20;;;;;;;19.73;63.16;99463.50;1757168;81;21547;-44
2022/07/09 03:42:12;;;;;;;4.90;2.00;;;;;;;19.80;62.94;99457.27;1756876;81;21223;-44
2022/07/09 03:44:40;;;;;;;2.50;1.95;;;;;;;19.88;61.42;99464.81;1751768;81;21005;-44
2022/07/09 03:47:07;;;;;;;3.77;2.02;;;;;;;19.92;59.81;99462.18;1756843;81;21045;-44
2022/07/09 03:49:34;;;;;;;2.98;2.00;;;;;;;19.94;58.82;99453.52;1756995;81;21580;-44
2022/07/09 03:52:01;;;;;;;3.20;2.08;;;;;;;19.96;58.72;99458.77;1756914;81;21085;-44
2022/07/09 03:54:28;;;;;;;5.72;1.80;;;;;;;19.95;58.51;99461.92;1756950;81;21119;-44
2022/07/09 03:56:55;;;;;;;3.10;1.98;;;;;;;19.87;58.64;99454.41;1756774;81;21012;-44
2022/07/09 03:59:22;;;;;;;2.27;2.05;;;;;;;19.82;58.93;99458.23;1756870;81;20977;-44
2022/07/09 04:01:49;;;;;;;4.00;1.95;;;;;;;19.76;59.33;99462.65;1756619;81;21594;-44
2022/07/09 04:04:16;;;;;;;3.50;1.95;;;;;;;19.70;59.30;99465.72;1756964;81;21049;-44
2022/07/09 04:06:44;;;;;;;3.02;1.80;;;;;;;19.69;59.49;99464.16;1756822;81;21234;-44
2022/07/09 04:09:12;;;;;;;3.25;1.90;;;;;;;19.67;59.09;99467.91;1756865;81;20930;-44
2022/07/09 04:11:39;;;;;;;4.12;1.80;;;;;;;19.63;59.33;99465.82;1756793;81;20950;-44
2022/07/09 04:14:07;;;;;;;3.40;2.00;;;;;;;19.64;59.70;99464.04;1748747;81;21017;-44
2022/07/09 04:16:34;;;;;;;2.90;2.00;;;;;;;19.66;59.75;99464.98;1743398;82;20990;-44
2022/07/09 04:19:03;;;;;;;3.17;1.65;;;;;;;19.69;59.49;99469.66;1743340;82;23216;-44
2022/07/09 04:21:30;;;;;;;4.83;1.82;;;;;;;19.77;58.70;99469.72;1743521;81;21001;-44
2022/07/09 04:23:56;;;;;;;3.00;1.85;;;;;;;19.83;58.42;99465.30;1743549;81;21032;-44
2022/07/09 04:26:24;;;;;;;2.72;1.90;;;;;;;19.85;58.42;99460.91;1743312;82;21076;-44
2022/07/09 04:28:51;;;;;;;2.52;2.10;;;;;;;19.87;58.51;99466.79;1743455;81;20990;-44
2022/07/09 04:31:19;;;;;;;3.37;1.85;;;;;;;19.86;58.42;99464.45;1743382;82;21186;-44
2022/07/09 04:33:47;;;;;;;4.33;2.20;;;;;;;19.84;58.48;99464.89;1743387;81;20934;-44
2022/07/09 04:36:14;;;;;;;4.58;2.08;;;;;;;19.78;58.75;99467.93;1743353;82;21038;-44
2022/07/09 04:38:42;;;;;;;3.02;2.17;;;;;;;19.75;58.74;99457.74;1743473;82;20946;-44
2022/07/09 04:41:10;;;;;;;3.10;2.05;;;;;;;19.68;59.05;99458.47;1743490;82;21085;-44
2022/07/09 04:43:37;;;;;;;3.35;2.10;;;;;;;19.63;59.62;99458.95;1743482;82;21261;-44
2022/07/09 04:46:04;;;;;;;4.87;1.87;;;;;;;19.60;59.84;99458.42;1743335;82;20957;-44
2022/07/09 04:48:31;;;;;;;2.00;1.80;;;;;;;19.60;59.98;99450.17;1743558;81;20970;-44
2022/07/09 04:50:59;;;;;;;3.67;2.30;;;;;;;19.58;59.94;99450.58;1743544;82;20986;-44
2022/07/09 04:53:26;;;;;;;3.55;2.00;;;;;;;19.59;60.04;99451.36;1743562;82;21053;-44
2022/07/09 04:55:53;;;;;;;2.62;2.15;;;;;;;19.58;60.10;99455.30;1743471;81;21137;-44
2022/07/09 04:58:20;;;;;;;3.08;2.02;;;;;;;19.60;59.69;99454.29;1743460;82;20962;-44
2022/07/09 05:00:47;;;;;;;2.92;1.85;;;;;;;19.62;59.73;99450.51;1743294;82;21571;-44
2022/07/09 05:03:14;;;;;;;3.08;1.90;;;;;;;19.64;59.68;99445.38;1743469;81;21516;-44
2022/07/09 05:05:41;;;;;;;3.05;1.85;;;;;;;19.67;59.81;99438.44;1743493;82;21025;-44
2022/07/09 05:08:09;;;;;;;5.33;2.00;;;;;;;19.66;59.71;99431.97;1743493;82;21231;-44
2022/07/09 05:10:36;;;;;;;2.90;1.98;;;;;;;19.65;60.25;99433.19;1743321;82;20942;-44
2022/07/09 05:13:03;;;;;;;2.40;1.90;;;;;;;19.65;60.05;99429.06;1743560;81;21037;-45
2022/07/09 05:15:32;;;;;;;3.15;2.15;;;;;;;19.63;60.35;99425.94;1756708;81;21069;-44
2022/07/09 05:17:59;;;;;;;3.02;1.72;;;;;;;19.66;60.56;99416.84;1757279;81;21522;-44
2022/07/09 05:20:27;;;;;;;6.30;1.72;;;;;;;19.71;60.39;99408.89;1756638;81;23129;-44
2022/07/09 05:22:54;;;;;;;4.75;1.77;;;;;;;19.75;60.32;99401.98;1756706;81;21004;-44
2022/07/09 05:25:22;;;;;;;2.87;1.98;;;;;;;19.75;60.39;99395.84;1756792;81;21004;-44
2022/07/09 05:27:50;;;;;;;1.87;1.70;;;;;;;19.74;60.33;99394.91;1756917;81;21490;-44
2022/07/09 05:30:18;;;;;;;4.70;2.00;;;;;;;19.70;60.53;99385.95;1756721;81;21040;-44
2022/07/09 05:32:45;;;;;;;2.27;1.80;;;;;;;19.66;60.92;99378.34;1756758;81;21251;-44
2022/07/09 05:35:12;;;;;;;2.60;1.98;;;;;;;19.61;61.05;99360.94;1756673;81;20926;-44
2022/07/09 05:37:43;;;;;;;2.52;1.65;;;;;;;19.53;61.18;99350.08;1756735;81;20913;-44
2022/07/09 05:40:11;;;;;;;4.67;1.67;;;;;;;19.48;61.27;99347.03;1756974;81;21072;-44
2022/07/09 05:42:39;;;;;;;1.92;1.60;;;;;;;19.45;61.25;99330.01;1756880;81;21582;-44
2022/07/09 05:45:10;;;;;;;2.17;1.60;;;;;;;19.43;61.28;99324.89;1756493;81;23198;-44
2022/07/09 05:47:37;;;;;;;1.60;1.37;;;;;;;19.44;60.88;99318.23;1756932;81;21081;-44
2022/07/09 05:50:05;;;;;;;2.10;1.40;;;;;;;19.46;60.84;99313.08;1756763;81;21199;-44
2022/07/09 05:52:33;;;;;;;3.90;1.80;;;;;;;19.51;60.58;99315.34;1757130;81;21045;-44
2022/07/09 05:55:00;;;;;;;3.22;1.40;;;;;;;19.62;60.43;99317.91;1756838;81;21292;-44
2022/07/09 05:57:27;;;;;;;3.17;1.55;;;;;;;19.76;59.90;99315.48;1756614;81;23174;-44
2022/07/09 05:59:54;;;;;;;2.67;1.22;;;;;;;19.93;59.65;99318.50;1756521;81;21464;-44
2022/07/09 06:02:21;;;;;;;2.95;1.47;;;;;;;20.07;59.40;99313.31;1756732;81;21794;-44
2022/07/09 06:04:49;;;;;;;2.40;1.45;;;;;;;20.19;59.26;99308.52;1756697;81;22054;-44
2022/07/09 06:07:16;;;;;;;2.12;1.30;;;;;;;20.30;59.13;99300.83;1756758;81;20998;-44
2022/07/09 06:09:43;;;;;;;5.40;1.75;;;;;;;20.39;58.59;99293.56;1756748;81;21125;-44
2022/07/09 06:12:11;;;;;;;4.28;1.70;;;;;;;20.47;58.29;99286.54;1756592;81;21060;-44
2022/07/09 06:14:38;;;;;;;2.58;1.50;;;;;;;20.54;58.37;99287.73;1749698;81;21013;-44
2022/07/09 06:17:05;;;;;;;2.58;1.47;;;;;;;20.60;58.09;99292.92;1743240;82;21617;-44
2022/07/09 06:19:36;;;;;;;1.90;1.20;;;;;;;20.69;57.41;99293.09;1743536;82;21009;-44
2022/07/09 06:22:05;;;;;;;2.67;1.30;;;;;;;20.80;57.08;99297.17;1743292;82;23157;-44
2022/07/09 06:24:31;;;;;;;2.27;1.30;;;;;;;20.92;56.94;99297.06;1743345;82;21516;-44
2022/07/09 06:29:04;;;;;;;2.65;1.17;;;;;;;21.24;56.02;99285.30;1797478;79;22570;-44
2022/07/09 06:31:32;;;;;;;2.02;1.12;;;;;;;21.24;55.69;99294.34;1757488;81;21491;-44
2022/07/09 06:33:59;;;;;;;1.98;1.50;;;;;;;21.36;55.67;99297.58;1757285;81;21263;-44
2022/07/09 06:36:27;;;;;;;3.25;1.40;;;;;;;21.47;55.15;99293.95;1757081;81;20933;-44
2022/07/09 06:41:41;;;;;;;2.95;1.50;;;;;;;21.62;53.71;99292.37;1757349;81;20938;-44
2022/07/09 06:44:08;;;;;;;1.98;1.27;;;;;;;21.66;53.76;99290.28;1757217;81;20886;-44
2022/07/09 06:46:38;;;;;;;1.15;1.05;;;;;;;21.72;54.31;99293.29;1757182;81;21135;-45
2022/07/09 06:49:05;;;;;;;1.82;1.15;;;;;;;21.81;54.02;99298.95;1757213;81;21507;-45
2022/07/09 06:51:33;;;;;;;2.02;1.22;;;;;;;21.89;54.05;99297.53;1757150;81;21528;-44
2022/07/09 06:54:00;;;;;;;2.08;1.47;;;;;;;21.98;54.15;99291.57;1757624;81;21057;-44
2022/07/09 06:56:27;;;;;;;2.12;1.25;;;;;;;22.09;54.13;99292.05;1757218;81;21013;-45
2022/07/09 06:58:54;;;;;;;4.75;1.45;;;;;;;22.17;53.92;99296.00;1757040;81;23150;-45
2022/07/09 07:01:21;;;;;;;1.90;1.22;;;;;;;22.20;53.10;99293.73;1757089;81;20901;-45
2022/07/09 07:03:48;;;;;;;1.75;1.32;;;;;;;22.16;53.07;99293.84;1757182;81;20933;-45
2022/07/09 07:06:15;;;;;;;2.02;1.32;;;;;;;22.17;53.34;99294.61;1754211;81;21534;-45
2022/07/09 07:08:42;;;;;;;2.30;1.50;;;;;;;22.13;53.19;99295.30;1748996;82;21021;-44
2022/07/09 07:11:09;;;;;;;2.90;1.30;;;;;;;22.07;53.55;99284.80;1748955;82;21866;-44
2022/07/09 07:13:37;;;;;;;2.87;1.55;;;;;;;22.03;53.70;99290.25;1748820;82;21604;-45
2022/07/09 07:16:06;;;;;;;2.08;1.55;;;;;;;21.99;53.95;99279.32;1748848;82;20982;-45
2022/07/09 07:18:33;;;;;;;2.67;1.60;;;;;;;21.86;54.48;99268.83;1749440;82;21763;-44
2022/07/09 07:21:01;;;;;;;2.95;1.60;;;;;;;21.91;54.50;99282.70;1748881;82;21530;-44
2022/07/09 07:23:31;;;;;;;2.10;1.50;;;;;;;21.83;55.08;99293.17;1748890;82;21295;-45
2022/07/09 07:25:58;;;;;;;3.75;1.77;;;;;;;21.77;55.27;99285.25;1748733;82;20898;-45
2022/07/09 07:28:24;;;;;;;2.87;1.90;;;;;;;21.72;55.68;99294.06;1740882;82;20930;-45
2022/07/09 07:30:51;;;;;;;2.77;1.72;;;;;;;21.70;55.76;99285.44;1735672;82;20964;-45
2022/07/09 07:33:19;;;;;;;5.28;2.25;;;;;;;21.61;55.93;99286.08;1735754;82;21089;-45
2022/07/09 07:35:47;;;;;;;3.83;2.12;;;;;;;21.50;56.28;99283.42;1735692;82;21132;-45
2022/07/09 07:38:14;;;;;;;4.78;2.10;;;;;;;21.45;56.64;99270.16;1735456;82;21523;-44
2022/07/09 07:40:42;;;;;;;3.27;2.33;;;;;;;21.44;57.26;99272.77;1735080;82;21042;-45
2022/07/09 07:43:12;;;;;;;2.52;2.12;;;;;;;21.43;57.50;99267.08;1735156;82;20926;-44
2022/07/09 07:45:38;;;;;;;5.72;2.22;;;;;;;21.38;57.80;99260.11;1735450;82;21066;-44
2022/07/09 07:48:06;;;;;;;3.62;2.80;;;;;;;21.38;58.03;99264.84;1735028;82;23217;-45
2022/07/09 07:50:38;;;;;;;3.67;2.58;;;;;;;21.39;58.07;99264.42;1735109;82;21006;-45
2022/07/09 07:53:02;;;;;;;2.92;2.30;;;;;;;21.41;58.22;99255.69;1734889;82;20939;-45
2022/07/09 07:55:29;;;;;;;3.05;2.70;;;;;;;21.44;57.80;99250.10;1735090;82;21737;-44
2022/07/09 07:57:56;;;;;;;5.28;2.62;;;;;;;21.43;58.06;99243.03;1735287;82;20934;-44
2022/07/09 08:00:23;;;;;;;4.72;2.75;;;;;;;21.46;57.95;99246.89;1735083;82;21245;-44
2022/07/09 08:02:50;;;;;;;3.27;2.67;;;;;;;21.47;57.87;99251.20;1735128;82;20985;-45
2022/07/09 08:05:18;;;;;;;5.83;2.80;;;;;;;21.48;57.93;99244.48;1735105;82;21073;-45
2022/07/09 08:07:45;;;;;;;7.05;3.30;;;;;;;21.47;58.07;99249.82;1735162;82;21073;-45
2022/07/09 08:10:12;;;;;;;7.37;3.65;;;;;;;21.46;58.06;99246.28;1735241;82;21011;-44
2022/07/09 08:12:39;;;;;;;5.12;3.10;;;;;;;21.43;58.20;99242.25;1735497;82;21472;-44
2022/07/09 08:15:07;;;;;;;6.53;3.85;;;;;;;21.41;58.12;99237.77;1734874;82;21491;-44
2022/07/09 08:17:34;;;;;;;5.03;2.87;;;;;;;21.38;58.04;99240.02;1735176;82;21493;-45
2022/07/09 08:20:02;;;;;;;4.17;3.00;;;;;;;21.34;58.11;99235.21;1735146;82;20962;-44
2022/07/09 08:22:30;;;;;;;6.78;2.72;;;;;;;21.31;58.27;99238.82;1735424;82;21101;-45
2022/07/09 08:24:57;;;;;;;6.45;2.62;;;;;;;21.32;58.46;99236.23;1735153;82;21889;-44
2022/07/09 08:27:24;;;;;;;5.95;2.67;;;;;;;21.37;58.74;99239.84;1735663;81;20982;-45
2022/07/09 08:29:52;;;;;;;4.12;2.35;;;;;;;21.34;58.58;99235.98;1749188;82;21012;-45
2022/07/09 08:32:19;;;;;;;4.40;2.70;;;;;;;21.32;58.57;99232.10;1749134;82;21483;-44
2022/07/09 08:34:45;;;;;;;3.27;2.65;;;;;;;21.35;59.00;99236.77;1749197;82;21041;-45
2022/07/09 08:37:13;;;;;;;4.95;2.85;;;;;;;21.39;58.85;99231.92;1749026;82;21233;-44
2022/07/09 08:39:39;;;;;;;4.42;2.67;;;;;;;21.39;58.97;99230.55;1749342;82;21506;-44
2022/07/09 08:42:10;;;;;;;5.45;2.60;;;;;;;21.36;59.34;99229.42;1749119;82;21000;-45
2022/07/09 08:44:44;;;;;;;3.62;2.40;;;;;;;21.36;59.67;99225.88;1749053;82;20985;-44
2022/07/09 08:47:11;;;;;;;7.20;2.80;;;;;;;21.39;59.42;99232.70;1749284;82;20926;-44
2022/07/09 08:49:39;;;;;;;5.42;2.70;;;;;;;21.42;59.71;99230.44;1749191;82;21208;-45
2022/07/09 08:52:08;;;;;;;5.05;3.00;;;;;;;21.49;59.84;99223.97;1748936;82;21542;-45
2022/07/09 08:54:37;;;;;;;5.22;2.90;;;;;;;21.59;59.41;99227.04;1749072;82;20941;-45
2022/07/09 08:57:05;;;;;;;4.90;2.67;;;;;;;21.66;59.38;99222.69;1749347;82;21542;-44
2022/07/09 08:59:33;;;;;;;5.00;3.20;;;;;;;21.73;59.42;99216.98;1749270;82;21013;-44
2022/07/09 09:02:09;;;;;;;3.35;2.60;;;;;;;21.78;59.12;99224.72;1749161;82;21232;-44
2022/07/09 09:04:39;;;;;;;4.92;3.05;;;;;;;21.82;59.37;99225.39;1749100;82;21001;-44
2022/07/09 09:07:19;;;;;;;5.53;3.10;;;;;;;21.81;59.10;99221.67;1748767;81;20953;-44
2022/07/09 09:09:46;;;;;;;3.87;2.90;;;;;;;21.80;58.97;99222.88;1748985;82;21008;-44
2022/07/09 09:12:13;;;;;;;6.62;3.15;;;;;;;21.80;59.08;99222.28;1749134;82;21073;-45
2022/07/09 09:14:49;;;;;;;5.12;2.90;;;;;;;21.80;59.29;99225.04;1749100;82;21123;-44
2022/07/09 09:17:17;;;;;;;5.12;2.60;;;;;;;21.75;59.11;99226.18;1749095;82;20981;-45
2022/07/09 09:19:44;;;;;;;4.15;2.60;;;;;;;21.72;59.56;99231.20;1748919;82;21016;-45
2022/07/09 09:22:15;;;;;;;5.80;2.60;;;;;;;21.73;59.63;99223.87;1749003;82;21045;-44
2022/07/09 09:24:42;;;;;;;4.67;2.37;;;;;;;21.74;59.43;99228.16;1748730;82;20997;-44
2022/07/09 09:27:11;;;;;;;6.30;2.60;;;;;;;21.77;59.68;99223.16;1748892;82;20965;-45
2022/07/09 09:29:41;;;;;;;3.25;2.33;;;;;;;21.80;59.78;99227.80;1748922;81;21032;-44
2022/07/09 09:32:10;;;;;;;4.80;2.33;;;;;;;21.84;59.32;99222.95;1737227;82;20965;-44
2022/07/09 09:34:40;;;;;;;4.45;2.60;;;;;;;21.84;58.83;99222.95;1749066;82;21543;-45
2022/07/09 09:37:08;;;;;;;3.70;2.43;;;;;;;21.85;58.91;99227.26;1749352;82;21055;-45
2022/07/09 09:39:36;;;;;;;;;;;;;;;21.88;58.83;99229.77;1751769;82;21246;-45
2022/07/09 09:42:05;;;;;;;4.90;3.00;;;;;;;21.93;59.08;99225.08;1749052;82;20270;-44
2022/07/09 09:44:37;;;;;;;4.87;2.67;;;;;;;21.89;58.79;99223.01;1749004;82;20977;-45
2022/07/09 09:47:05;;;;;;;6.55;2.30;;;;;;;21.92;58.90;99227.06;1749057;82;20934;-45
2022/07/09 09:49:32;;;;;;;4.25;2.35;;;;;;;21.99;58.69;99225.49;1748944;82;21058;-44
2022/07/09 09:52:10;;;;;;;4.28;2.30;;;;;;;22.06;58.17;99219.00;1749094;82;21128;-44
2022/07/09 09:54:39;;;;;;;3.62;2.50;;;;;;;22.11;58.02;99212.92;1748908;82;22055;-44
2022/07/09 09:57:13;;;;;;;4.00;1.85;;;;;;;22.24;57.28;99217.84;1749133;82;21559;-44
2022/07/09 09:59:42;;;;;;;4.62;2.05;;;;;;;22.40;56.98;99212.83;1748931;82;21073;-44
2022/07/09 10:02:10;;;;;;;4.97;1.82;;;;;;;22.49;56.20;99212.32;1749287;82;21053;-44
2022/07/09 10:04:40;;;;;;;4.42;2.12;;;;;;;;;;1749082;82;21244;-44
2022/07/09 10:07:09;;;;;;;3.70;1.77;;;;;;;22.78;56.28;99214.19;1748846;82;21020;-44
2022/07/09 10:09:36;;;;;;;3.35;1.80;;;;;;;22.98;56.44;99207.79;1749046;82;21008;-44
2022/07/09 10:12:04;;;;;;;2.90;1.65;;;;;;;23.16;54.61;99203.02;1749010;82;21009;-45
2022/07/09 10:14:35;;;;;;;2.37;1.95;;;;;;;23.29;54.47;99203.13;1749262;82;21016;-45
2022/07/09 10:17:15;;;;;;;4.35;1.98;;;;;;;23.46;54.13;99199.61;1749038;82;23184;-44
2022/07/09 10:19:57;;;;;;;2.33;2.10;;;;;;;23.65;52.97;99202.66;1749068;82;20965;-44
2022/07/09 10:22:41;;;;;;;2.87;1.80;;;;;;;23.82;52.82;99199.83;1748920;82;20985;-44
2022/07/09 10:25:10;;;;;;;1.87;1.70;;;;;;;23.98;51.73;99199.46;1748820;82;21542;-44
2022/07/09 10:27:45;;;;;;;4.40;2.00;;;;;;;24.07;51.40;99193.96;1749025;82;21530;-45
2022/07/09 10:30:28;;;;;;;5.15;1.85;;;;;;;24.12;50.55;99194.75;1736067;82;21079;-44
2022/07/09 10:33:08;;;;;;;3.85;1.98;;;;;;;24.12;50.25;99194.14;1735011;82;21022;-45
2022/07/09 10:35:49;;;;;;;2.67;1.60;;;;;;;24.10;50.45;99193.07;1735489;82;21002;-44
2022/07/09 10:38:18;;;;;;;3.37;1.70;;;;;;;24.08;50.42;99190.75;1734765;82;21037;-44
2022/07/09 10:40:47;;;;;;;4.00;1.80;;;;;;;24.00;49.26;99192.86;1735309;82;20978;-44
2022/07/09 10:43:15;;;;;;;2.52;1.50;;;;;;;23.87;49.33;99195.70;1735063;82;21222;-45
2022/07/09 10:45:44;;;;;;;2.83;1.70;;;;;;;23.78;49.63;99197.04;1734808;82;21559;-44
2022/07/09 10:48:15;;;;;;;2.65;1.60;;;;;;;23.73;50.59;99195.63;1734923;82;21044;-45
2022/07/09 10:50:49;;;;;;;2.80;1.70;;;;;;;23.72;50.15;99188.55;1735205;82;21543;-45
2022/07/09 10:53:14;;;;;;;4.58;1.80;;;;;;;23.68;50.11;99190.67;1734000;82;21515;-45
2022/07/09 10:55:45;;;;;;;2.22;1.65;;;;;;;23.68;50.26;99194.05;1735000;82;21123;-45
2022/07/09 10:58:19;;;;;;;3.40;2.08;;;;;;;23.67;50.63;99190.51;1734963;82;20963;-43
2022/07/09 11:00:58;;;;;;;2.25;1.47;;;;;;;23.70;50.69;99191.62;1735258;82;21589;-43
2022/07/09 11:03:27;;;;;;;2.83;1.67;;;;;;;23.71;50.63;99191.17;1735236;82;21012;-44
2022/07/09 11:05:54;;;;;;;2.33;1.80;;;;;;;23.70;50.11;99188.23;1735206;82;21598;-43
2022/07/09 11:08:22;;;;;;;2.47;1.70;;;;;;;23.73;50.84;99191.48;1735071;82;21289;-43
2022/07/09 11:10:49;;;;;;;3.30;1.80;;;;;;;23.77;51.12;99189.95;1735010;82;21036;-44
2022/07/09 11:13:16;;;;;;;3.27;1.70;;;;;;;23.80;50.73;99188.45;1735193;82;21520;-45
2022/07/09 11:15:43;;;;;;;4.75;2.10;;;;;;;23.85;50.29;99184.94;1735162;82;21037;-45
2022/07/09 11:18:15;;;;;;;2.08;1.85;;;;;;;23.95;50.62;99190.69;1735174;82;21006;-45
2022/07/09 11:20:46;;;;;;;3.25;1.98;;;;;;;24.06;50.49;99189.67;1735216;82;21120;-45
2022/07/09 11:23:15;;;;;;;3.62;2.00;;;;;;;24.15;50.36;99189.09;1735231;82;21056;-44
2022/07/09 11:25:43;;;;;;;5.00;2.02;;;;;;;24.23;49.87;99192.37;1735507;82;21003;-45
2022/07/09 11:28:23;;;;;;;3.52;1.80;;;;;;;24.30;49.14;99193.50;1734991;82;21003;-44
2022/07/09 11:31:02;;;;;;;3.00;1.70;;;;;;;24.38;49.41;99191.98;1735313;82;21048;-44
2022/07/09 11:34:10;;;;;;;4.90;1.70;;;;;;;24.39;48.78;99192.14;1735199;82;21201;-45
2022/07/09 11:35:59;;;;;;;3.58;1.50;;;;;;;24.39;49.51;99193.52;1732117;82;21523;-45
2022/07/09 11:38:26;;;;;;;2.77;2.00;;;;;;;24.43;48.59;99187.83;1735205;82;21464;-45
2022/07/09 11:41:01;;;;;;;2.30;1.77;;;;;;;24.49;48.16;99192.33;1735157;82;20992;-44
2022/07/09 11:43:28;;;;;;;2.35;1.95;;;;;;;24.52;47.86;99191.41;1735123;82;21059;-45